Time;durP1;ratioP1;P1;durP2;ratioP2;P2;SDS_P1;SDS_P2;PMS_P1;PMS_P2;Temp;Humidity;BMP_temperature;BMP_pressure;BME280_temperature;BME280_humidity;BME280_pressure;Samples;Min_cycle;Max_cycle;Signal;HPM_P1;HPM_P2
2022/10/17 00:01:18;;;;;;;8.35;4.90;;;;;;;-143.48;86.57;78652.75;5010765;28;20474;-71
2022/10/17 00:03:43;;;;;;;8.85;4.80;;;;;;;-143.48;86.54;78644.81;4995885;28;20452;-72
2022/10/17 00:06:12;;;;;;;7.57;4.53;;;;;;;-143.48;87.13;78654.72;4995769;28;20065;-72
2022/10/17 00:08:39;;;;;;;6.97;4.75;;;;;;;-143.48;87.08;78652.75;4995726;28;20041;-73
2022/10/17 00:11:17;;;;;;;9.30;5.10;;;;;;;-143.48;87.01;78648.78;4994401;28;20545;-71
2022/10/17 00:13:43;;;;;;;9.25;4.82;;;;;;;-143.48;86.81;78640.84;4995581;28;20363;-72
2022/10/17 00:16:08;;;;;;;11.65;5.00;;;;;;;-143.48;87.14;78648.78;5010701;28;20037;-71
2022/10/17 00:18:34;;;;;;;14.98;5.13;;;;;;;-143.48;87.28;78654.72;4995552;28;20441;-71
2022/10/17 00:20:59;;;;;;;11.38;4.97;;;;;;;-143.48;87.63;78646.78;4994071;28;20560;-71
2022/10/17 00:23:26;;;;;;;10.75;4.97;;;;;;;-143.48;87.80;78662.66;4995463;28;20382;-71
2022/10/17 00:26:03;;;;;;;11.80;5.25;;;;;;;-143.48;88.08;78656.72;4994216;28;20022;-71
2022/10/17 00:28:29;;;;;;;9.93;5.28;;;;;;;-143.48;88.43;78656.72;4995356;28;20034;-71
2022/10/17 00:30:59;;;;;;;18.02;5.05;;;;;;;-143.48;88.56;78664.66;5010366;28;20022;-71
2022/10/17 00:33:25;;;;;;;11.18;5.20;;;;;;;-143.48;88.48;78656.72;4995423;28;20068;-71
2022/10/17 00:36:00;;;;;;;10.27;4.97;;;;;;;-143.48;88.30;78652.75;4994066;28;20469;-73
2022/10/17 00:38:25;;;;;;;10.23;5.22;;;;;;;-143.48;88.16;78650.75;4995202;28;20045;-70
2022/10/17 00:40:51;;;;;;;12.27;5.20;;;;;;;-143.48;88.39;78656.72;4995071;28;20470;-71
2022/10/17 00:43:17;;;;;;;7.43;5.05;;;;;;;-143.48;88.15;78654.72;4995000;28;20111;-71
2022/10/17 00:45:42;;;;;;;10.18;5.57;;;;;;;-143.48;88.59;78662.66;4994983;28;20169;-71
2022/10/17 00:48:10;;;;;;;11.25;5.32;;;;;;;-143.48;88.67;78668.59;5010481;28;20061;-71
2022/10/17 00:50:40;;;;;;;14.00;5.75;;;;;;;-143.48;88.86;78668.59;5014612;28;20393;-71
2022/10/17 00:53:07;;;;;;;10.40;5.82;;;;;;;-143.48;88.79;78672.56;5014700;28;20029;-71
2022/10/17 00:55:37;;;;;;;11.30;5.95;;;;;;;-143.48;89.04;78662.66;5013188;28;20047;-71
2022/10/17 00:58:05;;;;;;;10.85;6.30;;;;;;;-143.48;88.91;78670.59;4996829;28;20048;-71
2022/10/17 01:00:31;;;;;;;8.75;6.15;;;;;;;-143.48;88.76;78664.66;5014744;28;20025;-71
2022/10/17 01:02:56;;;;;;;11.82;6.70;;;;;;;-143.48;88.88;78672.56;5014122;28;20495;-72
2022/10/17 01:05:21;;;;;;;11.70;6.32;;;;;;;-143.48;89.55;78692.41;4996780;28;20113;-72
2022/10/17 01:07:49;;;;;;;12.73;6.40;;;;;;;-143.48;89.99;78676.53;4996111;28;20025;-72
2022/10/17 01:10:15;;;;;;;14.35;6.85;;;;;;;-143.48;90.56;78694.41;5014203;28;20388;-72
2022/10/17 01:12:48;;;;;;;13.68;7.20;;;;;;;-143.48;91.08;78686.47;5014272;28;20022;-71
2022/10/17 01:15:31;;;;;;;14.80;7.53;;;;;;;-143.48;90.71;78678.53;5014718;28;20034;-71
2022/10/17 01:18:28;;;;;;;12.48;6.95;;;;;;;-143.48;90.70;78672.56;5014032;28;20022;-71
2022/10/17 01:21:29;;;;;;;11.95;7.38;;;;;;;-143.48;90.22;78670.59;4996295;28;20036;-71
2022/10/17 01:24:06;;;;;;;11.88;7.50;;;;;;;-143.48;90.91;78682.50;5013238;28;20092;-71
2022/10/17 01:26:40;;;;;;;13.45;7.40;;;;;;;-143.48;90.74;78672.56;5014501;28;20026;-71
2022/10/17 01:29:08;;;;;;;11.05;7.18;;;;;;;-143.48;90.50;78666.63;5014144;28;20022;-72
2022/10/17 01:31:46;;;;;;;13.82;7.75;;;;;;;-143.48;90.65;78668.59;5013990;28;20129;-72
2022/10/17 01:34:20;;;;;;;13.60;7.53;;;;;;;-143.48;90.58;78672.56;5012612;28;20116;-71
2022/10/17 01:37:02;;;;;;;12.73;7.53;;;;;;;-143.48;90.74;78672.56;5013814;28;20030;-71
2022/10/17 01:39:31;;;;;;;12.63;7.30;;;;;;;-143.48;91.12;78678.53;5013729;28;20030;-71
2022/10/17 01:42:05;;;;;;;14.13;7.45;;;;;;;-143.48;91.48;78670.59;5013697;28;20026;-71
2022/10/17 01:44:41;;;;;;;12.40;7.80;;;;;;;-143.48;91.22;78672.56;5012374;28;20030;-71
2022/10/17 01:47:11;;;;;;;12.68;7.43;;;;;;;-143.48;91.44;78650.75;5013587;28;20497;-71
2022/10/17 01:49:39;;;;;;;12.95;7.40;;;;;;;-143.48;91.10;78660.69;4996255;28;20061;-71
2022/10/17 01:52:17;;;;;;;13.95;7.65;;;;;;;-143.48;91.15;78664.66;4996234;28;20424;-72
2022/10/17 01:54:48;;;;;;;16.55;8.13;;;;;;;-143.48;91.46;78650.75;5013739;28;20026;-71
2022/10/17 01:57:23;;;;;;;15.55;7.80;;;;;;;-143.48;92.05;78654.72;5013570;28;20026;-71
2022/10/17 01:59:51;;;;;;;13.57;8.00;;;;;;;-143.48;92.52;78644.81;5013505;28;20049;-72
2022/10/17 02:02:19;;;;;;;14.02;7.70;;;;;;;-143.48;92.29;78636.88;5013374;28;20092;-72
2022/10/17 02:04:47;;;;;;;12.70;8.30;;;;;;;-143.48;92.89;78640.84;5013394;28;20026;-72
2022/10/17 02:07:12;;;;;;;12.43;8.13;;;;;;;-143.48;93.27;78636.88;4996052;28;20033;-72
2022/10/17 02:09:39;;;;;;;11.82;7.80;;;;;;;-143.48;92.94;78626.97;5014070;28;20026;-72
2022/10/17 02:12:32;;;;;;;15.13;8.27;;;;;;;-143.48;92.83;78623.00;5013463;28;20033;-72
2022/10/17 02:15:50;;;;;;;14.30;8.32;;;;;;;-143.48;92.69;78609.09;5013325;28;20036;-72
2022/10/17 02:18:35;;;;;;;11.15;8.00;;;;;;;-143.48;92.63;78613.06;5013542;28;20474;-72
2022/10/17 02:21:10;;;;;;;11.30;7.50;;;;;;;-143.48;92.61;78607.13;5016740;28;20025;-72
2022/10/17 02:23:40;;;;;;;14.05;8.05;;;;;;;-143.48;92.55;78599.19;5017580;28;20022;-72
2022/10/17 02:26:10;;;;;;;13.73;7.88;;;;;;;-143.48;92.58;78599.19;5017461;28;20397;-73
2022/10/17 02:28:54;;;;;;;11.27;8.13;;;;;;;-143.48;92.74;78601.19;5017657;28;20026;-72
2022/10/17 02:31:21;;;;;;;;;;;;;;;-143.48;92.73;78593.25;5017837;28;20029;-72
2022/10/17 02:33:55;;;;;;;11.35;8.27;;;;;;;-143.48;92.67;78587.28;4999831;28;19909;-72
2022/10/17 02:36:25;;;;;;;15.10;8.63;;;;;;;-143.48;92.69;78579.34;5000256;28;20500;-72
2022/10/17 02:38:53;;;;;;;15.20;8.82;;;;;;;-143.48;92.90;78573.41;5017235;28;20034;-72
2022/10/17 02:41:21;;;;;;;14.27;8.65;;;;;;;-143.48;93.17;78575.41;5018567;28;20036;-72
2022/10/17 02:43:48;;;;;;;13.35;8.10;;;;;;;-143.48;93.38;78567.47;5016331;28;20030;-72
2022/10/17 02:46:19;;;;;;;13.30;8.68;;;;;;;-143.48;93.44;78559.53;5017703;28;20050;-72
2022/10/17 02:48:57;;;;;;;14.23;8.85;;;;;;;-143.48;93.20;78547.63;5017441;28;20052;-72
2022/10/17 02:51:25;;;;;;;11.25;8.27;;;;;;;-143.48;93.38;78539.69;5015698;28;20022;-73
2022/10/17 02:54:03;;;;;;;14.60;8.43;;;;;;;-143.48;93.27;78539.69;5017477;28;20049;-71
2022/10/17 02:56:34;;;;;;;13.20;8.38;;;;;;;-143.48;93.28;78533.75;5016376;28;20461;-72
2022/10/17 02:59:02;;;;;;;12.48;7.55;;;;;;;-143.48;93.04;78531.75;5019462;28;20036;-72
2022/10/17 03:01:29;;;;;;;13.77;7.95;;;;;;;-143.48;92.98;78531.75;5028187;28;20026;-72
2022/10/17 03:04:06;;;;;;;15.43;8.15;;;;;;;-143.48;92.79;78525.81;5028561;28;20029;-74
2022/10/17 03:06:31;;;;;;;15.45;7.95;;;;;;;-143.48;93.09;78525.81;5029608;28;20037;-72
2022/10/17 03:08:56;;;;;;;14.38;8.27;;;;;;;-143.48;92.95;78523.81;5029723;28;20034;-73
2022/10/17 03:11:22;;;;;;;13.63;7.50;;;;;;;-143.48;93.01;78511.94;5030816;28;20022;-73
2022/10/17 03:13:47;;;;;;;11.30;7.30;;;;;;;-143.48;92.96;78505.97;5029805;28;20021;-73
2022/10/17 03:16:12;;;;;;;13.48;8.07;;;;;;;-143.48;92.61;78500.03;5030287;28;20108;-73
2022/10/17 03:18:38;;;;;;;14.32;7.72;;;;;;;-143.48;92.64;78496.06;5012544;28;20029;-74
2022/10/17 03:21:03;;;;;;;14.75;8.02;;;;;;;-143.48;92.82;78490.13;5021199;28;20025;-72
2022/10/17 03:23:28;;;;;;;12.32;7.75;;;;;;;-143.48;92.48;78478.22;5019821;28;20493;-72
2022/10/17 03:25:53;;;;;;;11.70;7.72;;;;;;;-143.48;92.41;78470.28;5016953;28;20524;-72
2022/10/17 03:28:19;;;;;;;12.38;7.63;;;;;;;-143.48;92.05;78464.34;5016696;28;20120;-72
2022/10/17 03:30:44;;;;;;;13.40;7.53;;;;;;;-143.48;91.91;78470.28;4998437;28;20377;-73
2022/10/17 03:33:09;;;;;;;14.02;7.60;;;;;;;-143.48;91.97;78468.28;5016227;28;20038;-72
2022/10/17 03:35:37;;;;;;;13.20;7.35;;;;;;;-143.48;92.08;78460.38;5016391;28;20033;-72
2022/10/17 03:38:03;;;;;;;12.35;7.60;;;;;;;-143.48;91.78;78464.34;4998715;28;20428;-71
2022/10/17 03:40:28;;;;;;;17.25;7.72;;;;;;;-143.48;92.02;78460.38;5016972;28;20036;-72
2022/10/17 03:42:53;;;;;;;11.15;7.60;;;;;;;-143.48;91.45;78462.34;5016535;28;20025;-72
2022/10/17 03:45:18;;;;;;;13.63;7.85;;;;;;;-143.48;91.65;78464.34;5014021;28;20045;-72
2022/10/17 03:47:44;;;;;;;13.57;7.75;;;;;;;-143.48;91.82;78456.41;4999575;28;442681;-71
2022/10/17 03:50:09;;;;;;;10.82;7.28;;;;;;;-143.48;91.83;78456.41;5015781;28;20489;-71
2022/10/17 03:52:34;;;;;;;14.93;7.70;;;;;;;-143.48;91.83;78446.47;5015795;28;20036;-70
2022/10/17 03:55:00;;;;;;;20.33;8.32;;;;;;;-143.48;91.58;78452.44;5015609;28;20030;-70
2022/10/17 03:57:25;;;;;;;14.02;7.45;;;;;;;-143.48;91.65;78446.47;5015734;28;20097;-70
2022/10/17 03:59:51;;;;;;;12.07;7.25;;;;;;;-143.48;91.49;78446.47;5015573;28;20068;-73
2022/10/17 04:02:16;;;;;;;15.90;7.30;;;;;;;-143.48;91.59;78440.53;5014074;28;20033;-70
2022/10/17 04:04:42;;;;;;;16.40;7.40;;;;;;;-143.48;91.57;78436.56;5015284;28;20033;-72
2022/10/17 04:07:07;;;;;;;11.05;7.70;;;;;;;-143.48;91.73;78434.59;5015496;28;20029;-73
2022/10/17 04:09:32;;;;;;;16.25;7.35;;;;;;;-143.48;91.87;78436.56;5015410;28;20018;-71
2022/10/17 04:11:57;;;;;;;12.25;7.03;;;;;;;-143.48;91.70;78438.53;5015934;28;20052;-71
2022/10/17 04:14:23;;;;;;;15.35;7.50;;;;;;;-143.48;92.13;78428.63;4998038;28;20080;-73
2022/10/17 04:16:48;;;;;;;10.82;7.35;;;;;;;-143.48;91.77;78438.53;5016020;28;20030;-71
2022/10/17 04:19:13;;;;;;;10.10;7.50;;;;;;;-143.48;91.85;78450.44;5015756;28;20037;-71
2022/10/17 04:21:39;;;;;;;13.50;7.18;;;;;;;-143.48;91.84;78452.44;5015628;28;20105;-72
2022/10/17 04:24:05;;;;;;;13.30;7.32;;;;;;;-143.48;91.76;78462.34;5015276;28;20030;-71
2022/10/17 04:26:30;;;;;;;13.40;7.40;;;;;;;-143.48;91.96;78462.34;5015102;28;20116;-71
2022/10/17 04:28:55;;;;;;;14.32;7.55;;;;;;;-143.48;92.03;78450.44;5014277;28;20025;-71
2022/10/17 04:31:21;;;;;;;14.73;7.05;;;;;;;-143.48;92.07;78440.53;4997694;28;20022;-70
2022/10/17 04:33:48;;;;;;;13.70;7.78;;;;;;;-143.48;92.19;78444.50;5014766;28;20085;-71
2022/10/17 04:36:18;;;;;;;15.63;7.32;;;;;;;-143.48;92.03;78450.44;5015334;28;20033;-71
2022/10/17 04:38:44;;;;;;;11.77;7.13;;;;;;;-143.48;92.00;78448.47;5015234;28;20029;-71
2022/10/17 04:41:12;;;;;;;11.05;6.75;;;;;;;-143.48;91.65;78440.53;5015102;28;20076;-72
2022/10/17 04:43:39;;;;;;;11.05;6.90;;;;;;;-143.48;91.62;78448.47;5014623;28;20030;-72
2022/10/17 04:46:07;;;;;;;14.80;7.30;;;;;;;-143.48;91.23;78422.69;5014774;28;20021;-71
2022/10/17 04:48:33;;;;;;;17.30;7.55;;;;;;;-143.48;91.15;78428.63;5014365;28;20412;-71
2022/10/17 04:51:05;;;;;;;10.95;7.20;;;;;;;-143.48;90.81;78424.66;5014504;28;20032;-71
2022/10/17 04:53:33;;;;;;;11.90;7.00;;;;;;;-143.48;90.69;78422.69;5014501;28;20045;-71
2022/10/17 04:55:58;;;;;;;11.73;7.13;;;;;;;-143.48;90.60;78416.72;5013996;28;20025;-71
2022/10/17 04:58:24;;;;;;;12.82;6.88;;;;;;;-143.48;90.05;78426.66;5014311;28;20104;-71
2022/10/17 05:00:50;;;;;;;10.25;6.57;;;;;;;-143.48;90.07;78432.59;5014301;28;20104;-71
2022/10/17 05:03:16;;;;;;;10.38;6.47;;;;;;;-143.48;89.98;78434.59;4996721;28;20037;-71
2022/10/17 05:05:42;;;;;;;12.60;6.43;;;;;;;-143.48;90.01;78426.66;5014303;28;20033;-72
2022/10/17 05:08:08;;;;;;;14.30;6.43;;;;;;;-143.48;89.93;78444.50;5014184;28;20072;-71
2022/10/17 05:10:38;;;;;;;13.00;6.88;;;;;;;-143.48;89.72;78426.66;4996509;28;20045;-71
2022/10/17 05:13:04;;;;;;;13.65;6.97;;;;;;;-143.48;89.91;78424.66;5014126;28;20025;-72
2022/10/17 05:15:29;;;;;;;13.05;6.97;;;;;;;-143.48;89.64;78426.66;5014844;28;20485;-72
2022/10/17 05:17:56;;;;;;;14.52;6.75;;;;;;;-143.48;89.59;78414.75;4996650;28;20037;-72
2022/10/17 05:20:21;;;;;;;13.20;6.55;;;;;;;-143.48;89.45;78418.72;5012623;28;20500;-72
2022/10/17 05:22:46;;;;;;;8.57;6.03;;;;;;;-143.48;89.40;78428.63;4996293;28;20018;-71
2022/10/17 05:25:11;;;;;;;10.98;6.35;;;;;;;-143.48;89.75;78422.69;4996641;28;20029;-71
2022/10/17 05:27:37;;;;;;;11.70;6.45;;;;;;;-143.48;89.66;78418.72;5013967;28;20041;-71
2022/10/17 05:30:03;;;;;;;11.57;6.97;;;;;;;-143.48;89.88;78418.72;5014401;28;20049;-71
2022/10/17 05:32:28;;;;;;;13.77;7.15;;;;;;;-143.48;89.69;78424.66;5013835;28;20049;-72
2022/10/17 05:34:53;;;;;;;11.77;7.05;;;;;;;-143.48;89.77;78436.56;5014172;28;20466;-71
2022/10/17 05:37:18;;;;;;;9.50;6.80;;;;;;;-143.48;89.70;78452.44;5014386;28;20509;-71
2022/10/17 05:39:44;;;;;;;23.65;7.00;;;;;;;-143.48;89.58;78444.50;4996492;28;20071;-71
2022/10/17 05:42:09;;;;;;;11.35;6.57;;;;;;;-143.48;90.05;78456.41;4996077;28;20033;-72
2022/10/17 05:44:34;;;;;;;11.65;6.72;;;;;;;-143.48;90.03;78452.44;5013666;28;20058;-71
2022/10/17 05:47:00;;;;;;;15.38;6.90;;;;;;;-143.48;90.55;78454.41;5013494;28;20413;-72
2022/10/17 05:49:26;;;;;;;13.07;7.15;;;;;;;-143.48;90.12;78450.44;4996033;28;20080;-72
2022/10/17 05:51:51;;;;;;;13.43;6.65;;;;;;;-143.48;90.19;78432.59;5013619;28;20014;-73
2022/10/17 05:54:17;;;;;;;11.07;6.93;;;;;;;-143.48;90.43;78434.59;5013273;28;20079;-72
2022/10/17 05:56:42;;;;;;;11.25;6.97;;;;;;;-143.48;90.05;78428.63;5013585;28;20097;-71
2022/10/17 05:59:07;;;;;;;12.98;6.85;;;;;;;-143.48;90.14;78420.69;5013380;28;20080;-72
2022/10/17 06:01:32;;;;;;;13.73;6.97;;;;;;;-143.48;90.05;78422.69;5013259;28;20500;-71
2022/10/17 06:03:58;;;;;;;15.10;7.22;;;;;;;-143.48;90.03;78420.69;5013436;28;20022;-72
2022/10/17 06:06:23;;;;;;;14.38;7.07;;;;;;;-143.48;90.08;78424.66;5013537;28;20030;-72
2022/10/17 06:08:48;;;;;;;11.55;7.13;;;;;;;-143.48;90.11;78436.56;5017327;28;20037;-72
2022/10/17 06:11:14;;;;;;;11.70;7.15;;;;;;;-143.48;90.43;78448.47;5016593;28;20026;-75
2022/10/17 06:13:40;;;;;;;13.30;7.25;;;;;;;-143.48;90.80;78456.41;5004860;28;20239;-73
2022/10/17 06:16:05;;;;;;;14.55;7.28;;;;;;;-143.48;90.78;78458.38;5002153;28;20022;-73
2022/10/17 06:18:31;;;;;;;13.73;7.20;;;;;;;-143.48;90.74;78464.34;5018383;28;20453;-74
2022/10/17 06:21:10;;;;;;;11.32;6.85;;;;;;;-143.48;91.00;78466.31;5012925;28;20028;-72
2022/10/17 06:23:36;;;;;;;10.43;7.10;;;;;;;-143.48;91.29;78454.41;5012788;28;20030;-72
2022/10/17 06:26:03;;;;;;;11.82;7.28;;;;;;;-143.48;91.28;78456.41;5013092;28;20369;-72
2022/10/17 06:28:29;;;;;;;12.82;7.20;;;;;;;-143.48;91.12;78456.41;4995341;28;20029;-72
2022/10/17 06:30:54;;;;;;;12.20;7.07;;;;;;;-143.48;90.95;78458.38;5013226;28;20026;-72
2022/10/17 06:33:20;;;;;;;10.98;6.75;;;;;;;-143.48;91.22;78466.31;5012652;28;20049;-72
2022/10/17 06:35:52;;;;;;;12.73;6.93;;;;;;;-143.48;91.34;78476.22;4995503;28;20026;-72
2022/10/17 06:38:18;;;;;;;13.18;7.05;;;;;;;-143.48;90.99;78460.38;5013058;28;20034;-72
2022/10/17 06:40:43;;;;;;;12.93;7.03;;;;;;;-143.48;90.95;78458.38;5012963;28;20449;-73
2022/10/17 06:43:08;;;;;;;19.20;7.35;;;;;;;-143.48;90.96;78460.38;5012802;28;20572;-72
2022/10/17 06:45:34;;;;;;;10.32;6.85;;;;;;;-143.48;90.97;78472.25;4995322;28;20087;-72
2022/10/17 06:48:01;;;;;;;14.77;6.95;;;;;;;-143.48;90.79;78476.22;4995143;28;20104;-72
2022/10/17 06:50:26;;;;;;;12.82;6.50;;;;;;;-143.48;90.88;78480.19;5014262;28;20121;-72
2022/10/17 06:52:51;;;;;;;13.50;7.13;;;;;;;-143.48;90.96;78464.34;4999971;28;20477;-73
2022/10/17 06:55:17;;;;;;;12.32;6.78;;;;;;;-143.48;90.84;78466.31;5014882;28;20026;-73
2022/10/17 06:57:42;;;;;;;15.73;7.50;;;;;;;-143.48;90.69;78476.22;5013026;28;20469;-72
2022/10/17 07:00:08;;;;;;;15.43;7.30;;;;;;;-143.48;90.79;78466.31;5012865;28;20385;-72
2022/10/17 07:02:33;;;;;;;15.95;7.28;;;;;;;-143.48;90.46;78470.28;5012830;28;20026;-72
2022/10/17 07:04:58;;;;;;;13.90;7.28;;;;;;;-143.48;90.42;78462.34;5013380;28;20094;-72
2022/10/17 07:07:24;;;;;;;11.90;7.10;;;;;;;-143.48;90.28;78458.38;5017144;28;20026;-71
2022/10/17 07:09:50;;;;;;;12.30;6.80;;;;;;;-143.48;90.18;78458.38;4998772;28;20026;-72
2022/10/17 07:12:15;;;;;;;14.95;6.90;;;;;;;-143.48;90.17;78462.34;5016469;28;20036;-72
2022/10/17 07:14:41;;;;;;;10.45;6.85;;;;;;;-143.48;90.12;78464.34;4998634;28;20026;-72
2022/10/17 07:17:06;;;;;;;12.25;6.28;;;;;;;-143.48;90.09;78458.38;5000281;28;20097;-73
2022/10/17 07:19:31;;;;;;;13.75;6.93;;;;;;;-143.48;90.12;78452.44;4998438;28;20064;-72
2022/10/17 07:21:57;;;;;;;14.75;6.82;;;;;;;-143.48;90.17;78458.38;5014699;28;20069;-72
2022/10/17 07:24:22;;;;;;;16.80;6.60;;;;;;;-143.48;90.21;78456.41;5016591;28;20030;-73
2022/10/17 07:26:47;;;;;;;19.10;7.22;;;;;;;-143.48;90.24;78458.38;5016340;28;20029;-73
2022/10/17 07:29:13;;;;;;;13.13;7.00;;;;;;;-143.48;90.17;78464.34;5016618;28;20084;-73
2022/10/17 07:31:38;;;;;;;12.95;6.63;;;;;;;-143.48;89.52;78458.38;4998555;28;20504;-72
2022/10/17 07:34:03;;;;;;;15.10;6.72;;;;;;;-143.48;89.68;78456.41;5014417;28;20489;-71
2022/10/17 07:36:29;;;;;;;12.88;6.95;;;;;;;-143.48;89.84;78458.38;5016075;28;20029;-70
2022/10/17 07:38:54;;;;;;;10.18;6.65;;;;;;;-143.48;89.86;78464.34;5014511;28;20030;-72
2022/10/17 07:41:21;;;;;;;12.32;6.85;;;;;;;-143.48;89.96;78466.31;5018638;28;20034;-73
2022/10/17 07:43:46;;;;;;;14.57;6.68;;;;;;;-143.48;90.09;78484.16;5001191;28;20022;-72
2022/10/17 07:46:11;;;;;;;14.45;7.03;;;;;;;-143.48;90.33;78490.13;5015725;28;20084;-72
2022/10/17 07:48:39;;;;;;;14.43;6.82;;;;;;;-143.48;90.74;78492.09;5016243;28;20092;-72
2022/10/17 07:51:06;;;;;;;12.77;6.88;;;;;;;-143.48;90.57;78492.09;5015547;28;20041;-71
2022/10/17 07:53:35;;;;;;;10.27;7.15;;;;;;;-143.48;90.31;78480.19;5015355;28;20018;-72
2022/10/17 07:56:04;;;;;;;9.60;6.78;;;;;;;-143.48;90.43;78482.19;5015183;28;20152;-71
2022/10/17 07:58:30;;;;;;;15.45;7.10;;;;;;;-143.48;90.60;78504.00;5015270;28;20026;-71
2022/10/17 08:00:59;;;;;;;10.48;6.93;;;;;;;-143.48;90.97;78521.84;5014380;28;20053;-72
2022/10/17 08:03:25;;;;;;;12.20;6.43;;;;;;;-143.48;90.56;78527.78;5015033;28;20030;-72
2022/10/17 08:05:50;;;;;;;13.32;7.05;;;;;;;-143.48;91.53;78545.66;5014957;28;20030;-71
2022/10/17 08:08:15;;;;;;;8.85;6.80;;;;;;;-143.48;92.11;78563.50;5014809;28;20026;-71
2022/10/17 08:10:40;;;;;;;10.23;6.70;;;;;;;-143.48;92.42;78563.50;5013321;28;20022;-71
2022/10/17 08:13:06;;;;;;;13.77;7.55;;;;;;;-143.48;92.78;78569.44;5014875;28;20117;-71
2022/10/17 08:15:31;;;;;;;16.83;6.93;;;;;;;-143.48;92.69;78573.41;5014729;28;20051;-72
2022/10/17 08:17:57;;;;;;;13.23;6.95;;;;;;;-143.48;92.81;78565.47;5013650;28;20022;-71
2022/10/17 08:20:22;;;;;;;13.77;7.03;;;;;;;-143.48;92.87;78563.50;5014585;28;20083;-71
2022/10/17 08:22:52;;;;;;;13.65;7.15;;;;;;;-143.48;93.08;78557.53;5014669;28;20480;-71
2022/10/17 08:25:17;;;;;;;11.73;6.88;;;;;;;-143.48;93.45;78547.63;5015356;28;20381;-70
2022/10/17 08:27:43;;;;;;;9.82;6.60;;;;;;;-143.48;93.46;78549.59;4997149;28;20032;-71
2022/10/17 08:30:09;;;;;;;14.50;6.65;;;;;;;-143.48;93.70;78539.69;4997766;28;20022;-71
2022/10/17 08:32:34;;;;;;;13.85;6.82;;;;;;;-143.48;94.37;78541.69;5014993;28;20014;-71
2022/10/17 08:35:00;;;;;;;16.58;7.15;;;;;;;-143.48;94.51;78543.66;5014807;28;20030;-71
2022/10/17 08:37:25;;;;;;;17.67;7.30;;;;;;;-143.48;94.62;78539.69;5014716;28;20022;-71
2022/10/17 08:39:50;;;;;;;14.80;7.75;;;;;;;-143.48;94.87;78547.63;5014652;28;20048;-70
2022/10/17 08:42:41;;;;;;;14.95;7.68;;;;;;;-143.48;95.00;78559.53;4996945;28;20037;-71
2022/10/17 08:45:31;;;;;;;11.77;7.15;;;;;;;-143.48;95.37;78565.47;5018491;28;20088;-71
2022/10/17 08:48:03;;;;;;;12.38;6.82;;;;;;;-143.48;95.31;78557.53;5015533;28;20057;-72
2022/10/17 08:50:44;;;;;;;17.35;7.47;;;;;;;-143.48;95.28;78555.56;5014421;28;20025;-72
2022/10/17 08:53:31;;;;;;;12.10;7.97;;;;;;;-143.48;95.61;78567.47;5014457;28;20022;-71
2022/10/17 08:56:04;;;;;;;12.50;7.10;;;;;;;-143.48;96.29;78561.50;5011885;28;20473;-72
2022/10/17 08:58:32;;;;;;;14.02;7.25;;;;;;;-143.48;96.23;78555.56;5014847;28;20017;-73
2022/10/17 09:01:25;;;;;;;12.63;7.57;;;;;;;-143.48;96.37;78539.69;5014636;28;20029;-71
2022/10/17 09:04:03;;;;;;;11.82;8.15;;;;;;;-143.48;96.72;78535.72;5014656;28;20389;-71
2022/10/17 09:07:19;;;;;;;16.30;7.68;;;;;;;-143.48;96.85;78535.72;5015240;28;20022;-72
2022/10/17 09:10:02;;;;;;;15.45;7.45;;;;;;;-143.48;97.19;78531.75;5005731;28;20492;-71
2022/10/17 09:12:40;;;;;;;15.23;7.88;;;;;;;-143.48;97.18;78519.88;5014518;28;20026;-71
2022/10/17 09:15:33;;;;;;;14.13;7.70;;;;;;;-143.48;96.92;78519.88;5014725;28;20121;-72
2022/10/17 09:18:21;;;;;;;14.73;7.57;;;;;;;-143.48;96.67;78521.84;5014477;28;20022;-72
2022/10/17 09:20:51;;;;;;;15.00;7.40;;;;;;;-143.48;96.88;78521.84;5018209;28;20076;-71
2022/10/17 09:23:44;;;;;;;17.20;7.63;;;;;;;-143.48;96.75;78539.69;5016082;28;20036;-72
2022/10/17 09:26:10;;;;;;;17.42;8.02;;;;;;;-143.48;96.89;78555.56;5016291;28;20022;-72
2022/10/17 09:28:41;;;;;;;19.65;7.88;;;;;;;-143.48;96.81;78565.47;5015603;28;20163;-71
2022/10/17 09:31:25;;;;;;;14.07;7.80;;;;;;;-143.48;96.89;78555.56;5016945;28;20033;-72
2022/10/17 09:33:54;;;;;;;17.55;7.90;;;;;;;-143.48;97.13;78561.50;5016603;28;20060;-72
2022/10/17 09:36:27;;;;;;;13.02;7.60;;;;;;;-143.48;97.00;78543.66;5014814;28;20053;-72
2022/10/17 09:38:56;;;;;;;14.85;8.52;;;;;;;-143.48;97.48;78547.63;5013211;28;20477;-72
2022/10/17 09:41:26;;;;;;;14.02;7.85;;;;;;;-143.48;97.94;78549.59;5012409;28;20022;-71
2022/10/17 09:43:55;;;;;;;15.75;8.13;;;;;;;-143.48;97.88;78539.69;5013723;28;20061;-71
2022/10/17 09:46:36;;;;;;;17.15;8.18;;;;;;;-143.48;97.86;78519.88;5012976;28;20057;-71
2022/10/17 09:49:09;;;;;;;14.00;7.68;;;;;;;-143.48;97.83;78527.78;5014522;28;20054;-72
2022/10/17 09:51:37;;;;;;;14.27;7.80;;;;;;;-143.48;97.50;78517.88;5013854;28;20018;-72
2022/10/17 09:54:06;;;;;;;13.07;7.50;;;;;;;-143.48;97.34;78500.03;5011163;28;20017;-72
2022/10/17 09:57:04;;;;;;;17.90;8.15;;;;;;;-143.48;96.98;78502.00;5013178;28;20029;-72
2022/10/17 09:59:42;;;;;;;14.63;7.60;;;;;;;-143.48;96.79;78507.97;5013586;28;20426;-72
2022/10/17 10:02:09;;;;;;;14.38;8.07;;;;;;;-143.48;96.96;78513.91;5011989;28;20022;-72
2022/10/17 10:04:34;;;;;;;14.63;7.35;;;;;;;-143.48;96.98;78523.81;5013147;28;20029;-72
2022/10/17 10:07:03;;;;;;;15.27;7.30;;;;;;;-143.48;97.06;78545.66;5013130;28;20029;-72
2022/10/17 10:09:34;;;;;;;15.88;8.20;;;;;;;-143.48;97.28;78559.53;5012425;28;20022;-72
2022/10/17 10:12:05;;;;;;;14.75;7.90;;;;;;;-143.48;97.70;78559.53;5013920;28;20036;-72
2022/10/17 10:14:34;;;;;;;13.02;7.72;;;;;;;-143.48;97.74;78575.41;5012427;28;20065;-73
2022/10/17 10:17:02;;;;;;;14.02;7.75;;;;;;;-143.48;97.66;78571.44;5014595;28;20026;-72
2022/10/17 10:19:35;;;;;;;10.85;7.30;;;;;;;-143.48;97.60;78573.41;5013619;28;20033;-71
2022/10/17 10:22:04;;;;;;;12.73;7.35;;;;;;;-143.48;97.56;78573.41;5013953;28;20034;-71
2022/10/17 10:24:29;;;;;;;11.40;6.85;;;;;;;-143.48;97.48;78589.28;5013324;28;20496;-72
2022/10/17 10:26:58;;;;;;;12.90;7.15;;;;;;;-143.48;97.81;78591.25;5013535;28;20057;-73
2022/10/17 10:29:32;;;;;;;15.23;7.10;;;;;;;-143.48;97.57;78591.25;5012529;28;20026;-73
2022/10/17 10:32:18;;;;;;;13.15;7.20;;;;;;;-143.48;97.55;78599.19;4993416;28;20477;-73
2022/10/17 10:34:47;;;;;;;14.85;7.60;;;;;;;-143.48;97.61;78611.09;5006253;28;20034;-72
2022/10/17 10:37:26;;;;;;;13.32;7.45;;;;;;;-143.48;97.70;78609.09;5012645;28;20105;-73
2022/10/17 10:39:57;;;;;;;23.42;7.28;;;;;;;-143.48;97.32;78599.19;5012827;28;20052;-71
2022/10/17 10:42:29;;;;;;;13.27;7.80;;;;;;;-143.48;97.26;78595.22;5016442;28;20026;-71
2022/10/17 10:45:02;;;;;;;12.75;7.05;;;;;;;-143.48;97.33;78601.19;5016564;28;20393;-72
2022/10/17 10:47:29;;;;;;;11.40;7.20;;;;;;;-143.48;97.43;78597.22;5016577;28;20046;-72
2022/10/17 10:50:15;;;;;;;12.57;6.70;;;;;;;-143.48;97.57;78601.19;5016698;28;20057;-72
2022/10/17 10:52:55;;;;;;;12.93;5.85;;;;;;;-143.48;97.42;78607.13;5016621;28;20022;-73
2022/10/17 10:55:31;;;;;;;7.47;4.95;;;;;;;-143.48;97.04;78628.94;4998957;28;20029;-73
2022/10/17 10:58:02;;;;;;;8.68;5.18;;;;;;;-143.48;97.09;78642.81;5016603;28;20030;-72
2022/10/17 11:00:31;;;;;;;8.50;4.75;;;;;;;-143.48;96.90;78650.75;5015193;28;20026;-73
2022/10/17 11:03:17;;;;;;;6.07;4.03;;;;;;;-143.48;96.63;78650.75;5016371;28;20029;-73
2022/10/17 11:05:55;;;;;;;5.43;3.78;;;;;;;-143.48;96.49;78662.66;5014977;28;20038;-72
2022/10/17 11:08:35;;;;;;;7.28;4.25;;;;;;;-143.48;96.47;78656.72;5016349;28;20362;-71
2022/10/17 11:11:16;;;;;;;8.77;4.80;;;;;;;-143.48;96.05;78646.78;4998580;28;20468;-72
2022/10/17 11:14:15;;;;;;;7.60;4.45;;;;;;;-143.48;96.44;78640.84;5016070;28;20120;-73
2022/10/17 11:16:48;;;;;;;10.27;4.95;;;;;;;-143.48;96.29;78638.84;5016640;28;20037;-73
2022/10/17 11:19:30;;;;;;;7.85;4.95;;;;;;;-143.48;96.40;78638.84;5016279;28;20080;-72
2022/10/17 11:22:15;;;;;;;10.88;5.00;;;;;;;-143.48;96.19;78630.94;5016526;28;20076;-73